Time;durP1;ratioP1;P1;durP2;ratioP2;P2;SDS_P1;SDS_P2;PMS_P1;PMS_P2;Temp;Humidity;BMP_temperature;BMP_pressure;BME280_temperature;BME280_humidity;BME280_pressure;Samples;Min_cycle;Max_cycle;Signal;HPM_P1;HPM_P2
2023/10/23 00:02:04;;;;;;;0.20;0.20;;;8.50;99.90;;;;;;5055459;28;20187;-92
2023/10/23 00:04:30;;;;;;;0.20;0.20;;;8.50;99.90;;;;;;5055988;28;20206;-93
2023/10/23 00:06:55;;;;;;;0.20;0.20;;;8.50;99.90;;;;;;5037973;28;20866;-93
2023/10/23 00:09:21;;;;;;;0.20;0.20;;;8.40;99.90;;;;;;5037029;28;20198;-92
2023/10/23 00:11:46;;;;;;;0.20;0.20;;;8.40;99.90;;;;;;5055186;28;20175;-92
2023/10/23 00:14:12;;;;;;;0.20;0.20;;;8.30;99.90;;;;;;5055135;28;20250;-93
2023/10/23 00:16:37;;;;;;;0.20;0.20;;;8.30;99.90;;;;;;5055268;28;20305;-93
2023/10/23 00:19:03;;;;;;;0.20;0.20;;;8.30;99.90;;;;;;5055519;28;20182;-92
2023/10/23 00:21:28;;;;;;;0.20;0.20;;;8.30;99.90;;;;;;5045566;28;20298;-92
2023/10/23 00:23:54;;;;;;;0.20;0.20;;;8.20;99.90;;;;;;5055546;28;20202;-93
2023/10/23 00:26:19;;;;;;;0.20;0.20;;;8.20;99.90;;;;;;5037191;28;20210;-93
2023/10/23 00:28:45;;;;;;;0.20;0.20;;;8.20;99.90;;;;;;5055266;28;20179;-93
2023/10/23 00:31:10;;;;;;;0.20;0.20;;;8.10;99.90;;;;;;5055060;28;20227;-94
2023/10/23 00:33:36;;;;;;;0.20;0.20;;;8.10;99.90;;;;;;5037976;28;20237;-92
2023/10/23 00:36:01;;;;;;;0.20;0.20;;;8.10;99.90;;;;;;5055170;28;20757;-91
2023/10/23 00:38:28;;;;;;;0.20;0.20;;;8.10;99.90;;;;;;5055187;28;20194;-88
2023/10/23 00:40:54;;;;;;;0.20;0.20;;;8.00;99.90;;;;;;5051288;28;20322;-92
2023/10/23 00:43:22;;;;;;;0.20;0.20;;;8.00;99.90;;;;;;5051744;28;20508;-93
2023/10/23 00:45:58;;;;;;;0.30;0.30;;;8.00;99.90;;;;;;5050696;28;20646;-94
2023/10/23 00:48:26;;;;;;;0.20;0.20;;;7.90;99.90;;;;;;5037055;28;20483;-92
2023/10/23 00:50:56;;;;;;;0.20;0.20;;;8.00;99.90;;;;;;5036380;28;20433;-91
2023/10/23 00:53:23;;;;;;;0.20;0.20;;;8.00;99.90;;;;;;5035377;28;20434;-90
2023/10/23 00:55:50;;;;;;;0.30;0.30;;;8.00;99.90;;;;;;5054333;28;20538;-92
2023/10/23 00:58:17;;;;;;;0.20;0.20;;;8.00;99.90;;;;;;5036519;28;20491;-92
2023/10/23 01:00:44;;;;;;;0.20;0.20;;;8.00;99.90;;;;;;5036622;28;20512;-92
2023/10/23 01:03:10;;;;;;;0.20;0.20;;;8.00;99.90;;;;;;5054750;28;20942;-92
2023/10/23 01:05:37;;;;;;;0.20;0.20;;;8.00;99.90;;;;;;5037079;28;20550;-92
2023/10/23 01:08:04;;;;;;;0.20;0.20;;;8.00;99.90;;;;;;5054536;28;20438;-91
2023/10/23 01:10:29;;;;;;;0.20;0.20;;;8.10;99.90;;;;;;5054158;28;20546;-91
2023/10/23 01:12:56;;;;;;;0.20;0.20;;;8.10;99.90;;;;;;5053109;28;20991;-91
2023/10/23 01:15:22;;;;;;;0.20;0.20;;;8.10;99.90;;;;;;5051293;28;20248;-92
2023/10/23 01:17:49;;;;;;;0.30;0.30;;;8.10;99.90;;;;;;5033335;28;20450;-92
2023/10/23 01:20:17;;;;;;;0.20;0.20;;;8.10;99.90;;;;;;5052232;28;20182;-92
2023/10/23 01:22:42;;;;;;;0.20;0.20;;;8.10;99.90;;;;;;5054586;28;20458;-93
2023/10/23 01:25:13;;;;;;;0.20;0.20;;;8.10;99.90;;;;;;5054125;28;20433;-92
2023/10/23 01:27:39;;;;;;;0.20;0.20;;;8.00;99.90;;;;;;5059264;28;20539;-92
2023/10/23 01:30:05;;;;;;;0.20;0.20;;;8.10;99.90;;;;;;5066658;28;20425;-93
2023/10/23 01:32:31;;;;;;;0.20;0.20;;;8.00;99.90;;;;;;5053145;28;20503;-92
2023/10/23 01:34:56;;;;;;;0.20;0.20;;;8.00;99.90;;;;;;5053529;28;20508;-93
2023/10/23 01:37:22;;;;;;;0.20;0.20;;;8.00;99.90;;;;;;5054455;28;20266;-92
2023/10/23 01:39:47;;;;;;;0.20;0.20;;;7.90;99.90;;;;;;5053805;28;20266;-92
2023/10/23 01:42:13;;;;;;;0.30;0.30;;;7.90;99.90;;;;;;5054714;28;20272;-92
2023/10/23 01:44:38;;;;;;;0.20;0.20;;;7.90;99.90;;;;;;5036583;28;20269;-93
2023/10/23 01:47:04;;;;;;;0.20;0.20;;;7.90;99.90;;;;;;5053466;28;20653;-92
2023/10/23 01:49:29;;;;;;;0.20;0.20;;;7.90;99.90;;;;;;5034741;28;20187;-91
2023/10/23 01:51:55;;;;;;;0.20;0.20;;;7.80;99.90;;;;;;5051218;28;20218;-90
2023/10/23 01:54:20;;;;;;;0.20;0.20;;;7.90;99.90;;;;;;5050803;28;20181;-91
2023/10/23 01:56:47;;;;;;;0.20;0.20;;;7.80;99.90;;;;;;5050584;28;20266;-90
2023/10/23 01:59:12;;;;;;;0.20;0.20;;;7.80;99.90;;;;;;5052438;28;20220;-92
2023/10/23 02:01:39;;;;;;;0.20;0.20;;;7.80;99.90;;;;;;5053664;28;20441;-92
2023/10/23 02:04:06;;;;;;;0.20;0.20;;;7.80;99.90;;;;;;5034489;28;20186;-93
2023/10/23 02:06:31;;;;;;;0.20;0.20;;;7.70;99.90;;;;;;5036190;28;20464;-91
2023/10/23 02:08:59;;;;;;;0.20;0.20;;;7.70;99.90;;;;;;5053593;28;20437;-93
2023/10/23 02:11:25;;;;;;;0.20;0.20;;;7.60;99.90;;;;;;5052723;28;20217;-91
2023/10/23 02:13:50;;;;;;;0.20;0.20;;;7.50;99.90;;;;;;5052987;28;20886;-90
2023/10/23 02:16:16;;;;;;;0.20;0.20;;;7.50;99.90;;;;;;5043217;28;20231;-91
2023/10/23 02:18:41;;;;;;;0.30;0.30;;;7.50;99.90;;;;;;5032125;28;20182;-91
2023/10/23 02:21:07;;;;;;;0.20;0.20;;;7.50;99.90;;;;;;5052226;28;20264;-88
2023/10/23 02:23:32;;;;;;;0.27;0.27;;;7.40;99.90;;;;;;5052958;28;20186;-90
2023/10/23 02:25:59;;;;;;;0.30;0.30;;;7.40;99.90;;;;;;5053088;28;20190;-90
2023/10/23 02:28:25;;;;;;;0.20;0.20;;;7.50;99.90;;;;;;5053656;28;20641;-93
2023/10/23 02:30:51;;;;;;;0.20;0.20;;;7.50;99.90;;;;;;5052170;28;20440;-92
2023/10/23 02:33:16;;;;;;;0.20;0.20;;;7.50;99.90;;;;;;5052993;28;20784;-90
2023/10/23 02:35:43;;;;;;;0.27;0.27;;;7.40;99.90;;;;;;5052995;28;20238;-89
2023/10/23 02:38:08;;;;;;;0.20;0.20;;;7.40;99.90;;;;;;5053121;28;20206;-89
2023/10/23 02:40:34;;;;;;;0.20;0.20;;;7.40;99.90;;;;;;5034855;28;20441;-91
2023/10/23 02:42:59;;;;;;;0.30;0.30;;;7.40;99.90;;;;;;5052817;28;20213;-90
2023/10/23 02:45:25;;;;;;;0.20;0.20;;;7.40;99.90;;;;;;5049790;28;20201;-90
2023/10/23 02:47:50;;;;;;;0.30;0.30;;;7.40;99.90;;;;;;5052222;28;20228;-89
2023/10/23 02:50:16;;;;;;;0.30;0.30;;;7.40;99.90;;;;;;5052653;28;20201;-90
2023/10/23 02:52:41;;;;;;;0.30;0.30;;;7.30;99.90;;;;;;5050386;28;20637;-90
2023/10/23 02:55:07;;;;;;;0.23;0.23;;;7.30;99.90;;;;;;5052136;28;20647;-90
2023/10/23 02:57:32;;;;;;;0.20;0.20;;;7.30;99.90;;;;;;5051420;28;20222;-90
2023/10/23 02:59:58;;;;;;;0.20;0.20;;;7.30;99.90;;;;;;5052452;28;20190;-90
2023/10/23 03:02:24;;;;;;;0.30;0.30;;;7.30;99.90;;;;;;5052815;28;20185;-91
2023/10/23 03:04:50;;;;;;;0.20;0.20;;;7.20;99.90;;;;;;5051999;28;20178;-90
2023/10/23 03:07:15;;;;;;;0.30;0.30;;;7.20;99.90;;;;;;5052311;28;20182;-90
2023/10/23 03:09:41;;;;;;;0.20;0.20;;;7.20;99.90;;;;;;5052955;28;20244;-89
2023/10/23 03:12:06;;;;;;;0.30;0.30;;;7.20;99.90;;;;;;5034351;28;20218;-90
2023/10/23 03:14:33;;;;;;;0.20;0.20;;;7.20;99.90;;;;;;5052644;28;20203;-89
2023/10/23 03:16:59;;;;;;;0.20;0.20;;;7.20;99.90;;;;;;5055902;28;20218;-87
2023/10/23 03:19:25;;;;;;;0.20;0.20;;;7.20;99.90;;;;;;5034285;28;20452;-90
2023/10/23 03:21:52;;;;;;;0.30;0.30;;;7.20;99.90;;;;;;5052490;28;20886;-89
2023/10/23 03:24:18;;;;;;;0.30;0.30;;;7.10;99.90;;;;;;5055330;28;20464;-89
2023/10/23 03:26:43;;;;;;;0.20;0.20;;;7.10;99.90;;;;;;5050606;28;20445;-90
2023/10/23 03:29:09;;;;;;;0.30;0.30;;;7.10;99.90;;;;;;5052246;28;20493;-90
2023/10/23 03:31:35;;;;;;;0.20;0.20;;;7.00;99.90;;;;;;5052340;28;20663;-90
2023/10/23 03:34:00;;;;;;;0.30;0.30;;;7.00;99.90;;;;;;5051447;28;20262;-90
2023/10/23 03:36:26;;;;;;;0.20;0.20;;;7.00;99.90;;;;;;5034630;28;20218;-90
2023/10/23 03:38:51;;;;;;;0.20;0.20;;;7.00;99.90;;;;;;5052671;28;20170;-89
2023/10/23 03:41:17;;;;;;;0.20;0.20;;;7.00;99.90;;;;;;5052648;28;20202;-89
2023/10/23 03:43:42;;;;;;;0.30;0.30;;;7.00;99.90;;;;;;5051415;28;20206;-91
2023/10/23 03:46:08;;;;;;;0.30;0.30;;;7.00;99.90;;;;;;5052097;28;20178;-89
2023/10/23 03:48:35;;;;;;;0.30;0.30;;;6.90;99.90;;;;;;5052343;28;20541;-91
2023/10/23 03:51:01;;;;;;;0.20;0.20;;;7.00;99.90;;;;;;5052015;28;20225;-90
2023/10/23 03:53:26;;;;;;;0.30;0.30;;;6.90;99.90;;;;;;5051991;28;20413;-89
2023/10/23 03:55:52;;;;;;;0.30;0.30;;;6.90;99.90;;;;;;5051570;28;20732;-90
2023/10/23 03:58:17;;;;;;;0.20;0.20;;;6.90;99.90;;;;;;5055185;28;20205;-91
2023/10/23 04:00:43;;;;;;;0.30;0.30;;;6.90;99.90;;;;;;5063068;28;20198;-89
2023/10/23 04:03:10;;;;;;;0.30;0.30;;;6.90;99.90;;;;;;5051830;28;20547;-90
2023/10/23 04:05:42;;;;;;;0.30;0.30;;;6.80;99.90;;;;;;5051873;28;20181;-89
2023/10/23 04:08:08;;;;;;;0.20;0.20;;;6.80;99.90;;;;;;5052127;28;20444;-90
2023/10/23 04:10:34;;;;;;;0.20;0.20;;;6.80;99.90;;;;;;5051565;28;20425;-90
2023/10/23 04:12:59;;;;;;;0.20;0.20;;;6.80;99.90;;;;;;5034654;28;20235;-90
2023/10/23 04:15:25;;;;;;;0.20;0.20;;;6.80;99.90;;;;;;5051785;28;20171;-90
2023/10/23 04:17:50;;;;;;;0.27;0.27;;;6.60;99.90;;;;;;5035293;28;20664;-89
2023/10/23 04:20:16;;;;;;;0.30;0.30;;;6.70;99.90;;;;;;5054931;28;20976;-90
2023/10/23 04:22:42;;;;;;;0.27;0.27;;;6.60;99.90;;;;;;5055646;28;20217;-90
2023/10/23 04:25:08;;;;;;;0.20;0.20;;;6.60;99.90;;;;;;5055683;28;20190;-90
2023/10/23 04:27:34;;;;;;;0.20;0.20;;;6.70;99.90;;;;;;5055935;28;20409;-90
2023/10/23 04:29:59;;;;;;;0.30;0.30;;;6.80;99.90;;;;;;5043873;28;21095;-90
2023/10/23 04:32:26;;;;;;;0.30;0.30;;;6.80;99.90;;;;;;5037638;28;20269;-90
2023/10/23 04:34:51;;;;;;;0.30;0.30;;;6.80;99.90;;;;;;5054563;28;20227;-90
2023/10/23 04:37:16;;;;;;;0.30;0.30;;;6.90;99.90;;;;;;5055715;28;20551;-89
2023/10/23 04:39:42;;;;;;;0.20;0.20;;;6.90;99.90;;;;;;5055334;28;20906;-90
2023/10/23 04:42:07;;;;;;;0.20;0.20;;;6.90;99.90;;;;;;5054967;28;20178;-90
2023/10/23 04:44:34;;;;;;;0.20;0.20;;;6.90;99.90;;;;;;5055214;28;20183;-90
2023/10/23 04:46:59;;;;;;;0.20;0.20;;;6.90;99.90;;;;;;5054631;28;20263;-90
2023/10/23 04:49:25;;;;;;;0.30;0.30;;;6.90;99.90;;;;;;5055340;28;20464;-90
2023/10/23 04:51:51;;;;;;;0.20;0.20;;;6.90;99.90;;;;;;5054190;28;20186;-89
2023/10/23 04:54:16;;;;;;;0.20;0.20;;;6.80;99.90;;;;;;5054377;28;20447;-91
2023/10/23 04:56:42;;;;;;;0.20;0.20;;;6.70;99.90;;;;;;5053506;28;20236;-90
2023/10/23 04:59:08;;;;;;;0.20;0.20;;;6.70;99.90;;;;;;5054108;28;20183;-90
2023/10/23 05:01:33;;;;;;;0.20;0.20;;;6.70;99.90;;;;;;5036445;28;20198;-90
2023/10/23 05:03:59;;;;;;;0.30;0.30;;;6.60;99.90;;;;;;5054275;28;20179;-90
2023/10/23 05:06:28;;;;;;;0.30;0.30;;;6.60;99.90;;;;;;5054327;28;20190;-90
2023/10/23 05:08:54;;;;;;;0.20;0.20;;;6.60;99.90;;;;;;5058134;28;20229;-90
2023/10/23 05:11:20;;;;;;;0.30;0.30;;;6.50;99.90;;;;;;5054137;28;20838;-91
2023/10/23 05:13:46;;;;;;;0.30;0.30;;;6.50;99.90;;;;;;5037286;28;20301;-91
2023/10/23 05:16:12;;;;;;;0.30;0.30;;;6.50;99.90;;;;;;5036347;28;20256;-89
2023/10/23 05:18:38;;;;;;;0.30;0.30;;;6.40;99.90;;;;;;5054032;28;20751;-91
2023/10/23 05:21:08;;;;;;;0.20;0.20;;;6.40;99.90;;;;;;5035347;28;20490;-92
2023/10/23 05:23:33;;;;;;;0.30;0.30;;;6.40;99.90;;;;;;5053635;28;20448;-91
2023/10/23 05:25:59;;;;;;;0.30;0.30;;;6.40;99.90;;;;;;5042282;28;20964;-93
2023/10/23 05:28:25;;;;;;;0.20;0.20;;;6.40;99.90;;;;;;5037056;28;20179;-90
2023/10/23 05:30:51;;;;;;;0.30;0.30;;;6.30;99.90;;;;;;5054646;28;20174;-90
2023/10/23 05:33:16;;;;;;;0.20;0.20;;;6.40;99.90;;;;;;5036498;28;20921;-89
2023/10/23 05:35:42;;;;;;;0.30;0.30;;;6.40;99.90;;;;;;5054096;28;20262;-90
2023/10/23 05:38:07;;;;;;;0.30;0.30;;;6.30;99.90;;;;;;5054224;28;20198;-90
2023/10/23 05:40:33;;;;;;;0.30;0.30;;;6.30;99.90;;;;;;5053652;28;20189;-89
2023/10/23 05:42:58;;;;;;;0.30;0.30;;;6.30;99.90;;;;;;5047590;28;20195;-88
2023/10/23 05:45:24;;;;;;;0.30;0.30;;;6.20;99.90;;;;;;5037930;28;20270;-90
2023/10/23 05:47:49;;;;;;;0.20;0.20;;;6.20;99.90;;;;;;5033824;28;20221;-89
2023/10/23 05:50:15;;;;;;;0.30;0.30;;;6.20;99.90;;;;;;5016166;28;20183;-90
2023/10/23 05:52:40;;;;;;;0.30;0.30;;;6.10;99.90;;;;;;5015884;28;20639;-92
2023/10/23 05:55:08;;;;;;;0.30;0.30;;;6.10;99.90;;;;;;5048198;28;20193;-92
2023/10/23 05:57:34;;;;;;;0.20;0.20;;;6.10;99.90;;;;;;5038292;28;20226;-92
2023/10/23 06:00:00;;;;;;;0.20;0.20;;;6.10;99.90;;;;;;5054964;28;20437;-94
2023/10/23 06:02:26;;;;;;;0.20;0.20;;;6.10;99.90;;;;;;5047328;28;20442;-93
2023/10/23 06:04:51;;;;;;;0.30;0.30;;;6.10;99.90;;;;;;5035718;28;20186;-92
2023/10/23 06:07:17;;;;;;;0.30;0.30;;;6.10;99.90;;;;;;5052059;28;20541;-91
2023/10/23 06:09:42;;;;;;;0.30;0.30;;;6.10;99.90;;;;;;5053334;28;20187;-93
2023/10/23 06:12:09;;;;;;;0.30;0.30;;;6.00;99.90;;;;;;5051160;28;20638;-92
2023/10/23 06:14:35;;;;;;;0.30;0.30;;;6.00;99.90;;;;;;5052391;28;20202;-90
2023/10/23 06:17:00;;;;;;;0.30;0.30;;;6.10;99.90;;;;;;5053074;28;20808;-91
2023/10/23 06:19:26;;;;;;;0.30;0.30;;;6.20;99.90;;;;;;5050440;28;20460;-91
2023/10/23 06:21:52;;;;;;;0.27;0.27;;;6.20;99.90;;;;;;5051238;28;20186;-94
2023/10/23 06:24:17;;;;;;;0.30;0.30;;;6.20;99.90;;;;;;5051205;28;20186;-93
2023/10/23 06:26:43;;;;;;;0.30;0.30;;;6.20;99.90;;;;;;5053854;28;20657;-91
2023/10/23 06:29:08;;;;;;;0.30;0.30;;;6.20;99.90;;;;;;5061209;28;20197;-90
2023/10/23 06:31:34;;;;;;;0.30;0.30;;;6.20;99.90;;;;;;5059023;28;20316;-95
2023/10/23 06:33:59;;;;;;;0.30;0.30;;;6.10;99.90;;;;;;5037943;28;20182;-94
2023/10/23 06:36:25;;;;;;;0.30;0.30;;;6.10;99.90;;;;;;5053557;28;20211;-94
2023/10/23 06:38:50;;;;;;;0.30;0.30;;;6.10;99.90;;;;;;5053223;28;20198;-94
2023/10/23 06:41:16;;;;;;;0.30;0.30;;;6.10;99.90;;;;;;5054350;28;20518;-95
2023/10/23 06:43:41;;;;;;;0.30;0.30;;;6.10;99.90;;;;;;5049276;28;20269;-94
2023/10/23 06:46:07;;;;;;;0.30;0.30;;;6.10;99.90;;;;;;5047353;28;20187;-93
2023/10/23 06:48:33;;;;;;;0.30;0.30;;;6.20;99.90;;;;;;5030048;28;20279;-94
2023/10/23 06:50:59;;;;;;;0.30;0.30;;;6.20;99.90;;;;;;5026722;28;20210;-92
2023/10/23 06:53:25;;;;;;;0.30;0.30;;;6.20;99.90;;;;;;5051783;28;20700;-94
2023/10/23 06:55:52;;;;;;;0.30;0.30;;;6.20;99.90;;;;;;5040254;28;20560;-93
2023/10/23 06:58:19;;;;;;;0.30;0.30;;;6.30;99.90;;;;;;5045263;28;20198;-92
2023/10/23 07:00:45;;;;;;;0.23;0.23;;;6.30;99.90;;;;;;5046615;28;20484;-91
2023/10/23 07:03:19;;;;;;;0.30;0.30;;;6.30;99.90;;;;;;5049350;28;20449;-91
2023/10/23 07:05:45;;;;;;;0.30;0.30;;;6.40;99.90;;;;;;5052079;28;20214;-92
2023/10/23 07:08:11;;;;;;;0.30;0.30;;;6.50;99.90;;;;;;5050505;28;20472;-90
2023/10/23 07:10:38;;;;;;;0.20;0.20;;;6.60;99.90;;;;;;5035809;28;20197;-92
2023/10/23 07:13:04;;;;;;;0.30;0.30;;;6.70;99.90;;;;;;5043428;28;20429;-88
2023/10/23 07:15:33;;;;;;;0.20;0.20;;;6.80;99.90;;;;;;5051608;28;20483;-90
2023/10/23 07:17:59;;;;;;;0.30;0.30;;;6.90;99.90;;;;;;5034702;28;20490;-90
2023/10/23 07:20:25;;;;;;;0.20;0.20;;;7.00;99.90;;;;;;5052638;28;20418;-91
2023/10/23 07:22:50;;;;;;;0.30;0.30;;;7.00;99.90;;;;;;5033403;28;20646;-93
2023/10/23 07:25:16;;;;;;;0.30;0.30;;;7.10;99.90;;;;;;5054038;28;20197;-92
2023/10/23 07:27:41;;;;;;;0.30;0.30;;;7.10;99.90;;;;;;5052766;28;20250;-91
2023/10/23 07:30:09;;;;;;;0.20;0.20;;;7.10;99.90;;;;;;5058903;28;20701;-92
2023/10/23 07:32:35;;;;;;;0.30;0.30;;;7.10;99.90;;;;;;5053005;28;20167;-93
2023/10/23 07:35:03;;;;;;;0.30;0.30;;;7.10;99.90;;;;;;5052885;28;20568;-91
2023/10/23 07:37:29;;;;;;;0.20;0.20;;;7.10;99.90;;;;;;5055337;28;20529;-92
2023/10/23 07:39:55;;;;;;;0.20;0.20;;;7.20;99.90;;;;;;5036846;28;20448;-92
2023/10/23 07:42:21;;;;;;;0.30;0.30;;;7.20;99.90;;;;;;5052967;28;20181;-92
2023/10/23 07:44:46;;;;;;;0.30;0.30;;;7.20;99.90;;;;;;5053132;28;20437;-93
2023/10/23 07:47:12;;;;;;;0.30;0.30;;;7.30;99.90;;;;;;5052631;28;20198;-91
2023/10/23 07:49:37;;;;;;;0.30;0.30;;;7.30;99.90;;;;;;5052259;28;20643;-92
2023/10/23 07:52:03;;;;;;;0.20;0.20;;;7.40;99.90;;;;;;5040380;28;20725;-91
2023/10/23 07:54:31;;;;;;;0.30;0.30;;;7.40;99.90;;;;;;5055701;28;20179;-91
2023/10/23 07:56:57;;;;;;;0.20;0.20;;;7.50;99.90;;;;;;5055929;28;20480;-90
2023/10/23 07:59:23;;;;;;;0.20;0.20;;;7.50;99.90;;;;;;5056058;28;20429;-91
2023/10/23 08:01:49;;;;;;;0.30;0.30;;;7.60;99.90;;;;;;5024376;28;20804;-88
2023/10/23 08:04:15;;;;;;;0.30;0.30;;;7.60;99.90;;;;;;5053279;28;20432;-92
2023/10/23 08:06:41;;;;;;;0.30;0.30;;;7.60;99.90;;;;;;5055805;28;20623;-94
2023/10/23 08:09:07;;;;;;;0.30;0.30;;;7.70;99.90;;;;;;5055914;28;20515;-91
2023/10/23 08:11:32;;;;;;;0.20;0.20;;;7.80;99.90;;;;;;5055907;28;20631;-92
2023/10/23 08:13:59;;;;;;;0.30;0.30;;;7.80;99.90;;;;;;5064079;28;20190;-90
2023/10/23 08:16:24;;;;;;;0.20;0.20;;;7.90;99.90;;;;;;5038787;28;20205;-93
2023/10/23 08:18:50;;;;;;;0.20;0.20;;;7.90;99.90;;;;;;5056069;28;20445;-93
2023/10/23 08:21:16;;;;;;;0.30;0.30;;;8.10;99.90;;;;;;5046226;28;20215;-93
2023/10/23 08:23:54;;;;;;;0.20;0.20;;;8.10;99.90;;;;;;5051272;28;20205;-93
2023/10/23 08:26:19;;;;;;;0.20;0.20;;;8.20;99.90;;;;;;5050980;28;20177;-94
2023/10/23 08:28:45;;;;;;;0.20;0.20;;;8.20;99.90;;;;;;5047416;28;20496;-92
2023/10/23 08:31:10;;;;;;;0.20;0.20;;;8.30;99.90;;;;;;5056303;28;20183;-93
2023/10/23 08:33:36;;;;;;;0.23;0.23;;;8.50;99.90;;;;;;5054639;28;20182;-95
2023/10/23 08:36:03;;;;;;;0.20;0.20;;;8.60;99.90;;;;;;5055481;28;20288;-93
2023/10/23 08:38:28;;;;;;;0.20;0.20;;;8.90;99.90;;;;;;5055129;28;20179;-91
2023/10/23 08:40:54;;;;;;;0.20;0.20;;;9.00;99.90;;;;;;5055092;28;20444;-93
2023/10/23 08:43:21;;;;;;;0.20;0.20;;;9.30;99.90;;;;;;5055292;28;20236;-93
2023/10/23 08:45:48;;;;;;;0.20;0.20;;;9.40;99.90;;;;;;5030635;28;20477;-93
2023/10/23 08:48:14;;;;;;;0.20;0.20;;;9.40;99.90;;;;;;5055783;28;20425;-94
2023/10/23 08:50:42;;;;;;;0.20;0.20;;;9.30;99.90;;;;;;5055508;28;20443;-92
2023/10/23 08:53:11;;;;;;;0.20;0.20;;;9.30;99.90;;;;;;5055095;28;20588;-91
2023/10/23 08:55:36;;;;;;;0.20;0.20;;;9.30;99.90;;;;;;5055576;28;20444;-94
2023/10/23 08:58:04;;;;;;;0.20;0.20;;;9.60;99.90;;;;;;5056404;28;20425;-94
2023/10/23 09:00:30;;;;;;;0.20;0.20;;;9.70;99.90;;;;;;5036024;28;20301;-94
2023/10/23 09:02:58;;;;;;;0.20;0.20;;;9.70;99.90;;;;;;5052477;28;20520;-94
2023/10/23 09:05:24;;;;;;;0.20;0.20;;;9.80;99.90;;;;;;5049451;28;20642;-96
2023/10/23 09:07:50;;;;;;;0.20;0.20;;;10.00;99.90;;;;;;5037716;28;20796;-93
2023/10/23 09:10:16;;;;;;;0.20;0.20;;;10.00;99.90;;;;;;5057053;28;20432;-95
2023/10/23 09:12:41;;;;;;;0.20;0.20;;;10.00;99.90;;;;;;5054334;28;20772;-93
2023/10/23 09:15:27;;;;;;;0.20;0.20;;;9.90;99.90;;;;;;5051001;28;20190;-93
2023/10/23 09:17:53;;;;;;;0.20;0.20;;;10.00;99.90;;;;;;5054285;28;20263;-94
2023/10/23 09:20:18;;;;;;;0.10;0.10;;;10.10;99.90;;;;;;5035975;28;20429;-93
2023/10/23 09:22:47;;;;;;;0.20;0.20;;;10.10;99.90;;;;;;5053170;28;20441;-91
2023/10/23 09:25:17;;;;;;;0.10;0.10;;;10.10;99.90;;;;;;5054572;28;20183;-93
2023/10/23 09:27:43;;;;;;;0.10;0.10;;;10.20;99.90;;;;;;5037084;28;20433;-94
2023/10/23 09:30:09;;;;;;;0.20;0.20;;;10.30;99.90;;;;;;5037092;28;20513;-94
2023/10/23 09:32:36;;;;;;;0.20;0.20;;;10.40;99.90;;;;;;5045993;28;20786;-94
2023/10/23 09:35:06;;;;;;;0.10;0.10;;;10.30;99.90;;;;;;5057333;28;20499;-94
2023/10/23 09:37:32;;;;;;;0.10;0.10;;;10.30;99.90;;;;;;5053647;28;20554;-94
2023/10/23 09:40:08;;;;;;;0.20;0.20;;;10.30;99.90;;;;;;5054961;28;20504;-95
2023/10/23 09:42:34;;;;;;;0.20;0.20;;;10.40;99.90;;;;;;5024441;28;20196;-93
2023/10/23 09:45:04;;;;;;;0.10;0.10;;;10.40;99.90;;;;;;5036063;28;20421;-94
2023/10/23 09:47:30;;;;;;;0.20;0.20;;;10.20;99.90;;;;;;5049227;28;20186;-95
2023/10/23 09:49:56;;;;;;;0.20;0.20;;;10.30;99.90;;;;;;5043745;28;20956;-92
2023/10/23 09:52:26;;;;;;;0.10;0.10;;;10.30;99.90;;;;;;5046891;28;20393;-94
2023/10/23 09:55:03;;;;;;;0.10;0.10;;;10.30;99.90;;;;;;5033196;28;20959;-95
2023/10/23 09:57:39;;;;;;;0.20;0.20;;;10.30;99.90;;;;;;5053963;28;20452;-95
2023/10/23 10:00:13;;;;;;;0.20;0.20;;;10.30;99.90;;;;;;5022150;28;20433;-93
2023/10/23 10:02:49;;;;;;;0.20;0.20;;;10.40;99.90;;;;;;5035944;28;20473;-95
2023/10/23 10:05:42;;;;;;;0.20;0.20;;;10.40;99.90;;;;;;5053330;28;20425;-94
2023/10/23 10:08:11;;;;;;;0.20;0.20;;;10.60;99.90;;;;;;5033159;28;20536;-92
2023/10/23 10:10:38;;;;;;;0.20;0.20;;;10.60;99.90;;;;;;5054474;28;20424;-94
2023/10/23 10:13:03;;;;;;;0.10;0.10;;;10.80;99.90;;;;;;5060780;28;20448;-95
2023/10/23 10:15:31;;;;;;;0.20;0.20;;;11.10;99.90;;;;;;5035322;28;20422;-93
2023/10/23 10:17:56;;;;;;;0.20;0.20;;;11.40;99.90;;;;;;5040817;28;20248;-96
2023/10/23 10:20:23;;;;;;;0.20;0.20;;;11.80;99.90;;;;;;5049560;28;21057;-94
2023/10/23 10:23:01;;;;;;;0.10;0.10;;;11.90;99.90;;;;;;5056163;28;20235;-92
2023/10/23 10:25:28;;;;;;;0.10;0.10;;;12.80;99.90;;;;;;5051829;28;20456;-92
2023/10/23 10:28:03;;;;;;;0.10;0.10;;;13.60;99.90;;;;;;5053895;28;20505;-96
2023/10/23 10:30:45;;;;;;;0.10;0.10;;;13.70;99.90;;;;;;5054002;28;20429;-91
2023/10/23 10:33:31;;;;;;;0.10;0.10;;;14.30;99.90;;;;;;5053296;28;20448;-93
2023/10/23 10:36:03;;;;;;;0.10;0.10;;;15.30;99.90;;;;;;5063195;28;20480;-94
2023/10/23 10:38:30;;;;;;;0.10;0.10;;;15.40;99.90;;;;;;5056887;28;20325;-96
2023/10/23 10:41:03;;;;;;;0.10;0.10;;;15.50;99.90;;;;;;5050294;28;20434;-94
2023/10/23 10:43:39;;;;;;;0.10;0.10;;;15.60;99.90;;;;;;5035752;28;20318;-96
2023/10/23 10:46:14;;;;;;;;;;;16.30;99.90;;;;;;5053086;28;20450;-96
2023/10/23 10:48:42;;;;;;;0.10;0.00;;;16.60;99.90;;;;;;5034629;28;20335;-95
2023/10/23 10:51:07;;;;;;;0.10;0.00;;;16.30;99.90;;;;;;5042041;28;20929;-96
2023/10/23 10:53:34;;;;;;;0.10;0.00;;;16.60;99.90;;;;;;5054908;28;20529;-95
2023/10/23 10:55:59;;;;;;;0.10;0.10;;;17.00;99.90;;;;;;5055078;28;20255;-96
2023/10/23 10:58:25;;;;;;;0.10;0.00;;;16.60;99.90;;;;;;5052813;28;20532;-93
2023/10/23 11:00:51;;;;;;;0.10;0.00;;;17.00;99.90;;;;;;5040041;28;20190;-92
2023/10/23 11:03:17;;;;;;;0.10;0.00;;;17.20;99.90;;;;;;5050819;28;20444;-93
2023/10/23 11:05:47;;;;;;;0.10;0.10;;;17.50;99.90;;;;;;5052306;28;20190;-95
2023/10/23 11:08:13;;;;;;;;;;;17.30;99.90;;;;;;5051626;28;20455;-90
2023/10/23 11:10:38;;;;;;;;;;;16.80;99.90;;;;;;5051021;28;19911;-92
2023/10/23 11:13:04;;;;;;;0.10;0.00;;;17.60;99.90;;;;;;5052826;28;19916;-94
2023/10/23 11:15:30;;;;;;;0.10;0.00;;;17.70;99.90;;;;;;5032970;28;20266;-94
2023/10/23 11:17:55;;;;;;;0.10;0.00;;;18.30;99.90;;;;;;5051547;28;20568;-93
2023/10/23 11:20:21;;;;;;;0.10;0.00;;;18.70;99.90;;;;;;5036388;28;20183;-93
2023/10/23 11:22:49;;;;;;;0.10;0.00;;;18.10;99.90;;;;;;5051965;28;20269;-91
2023/10/23 11:25:15;;;;;;;0.10;0.00;;;19.00;99.90;;;;;;5051180;28;20210;-92
2023/10/23 11:27:41;;;;;;;0.10;0.00;;;18.80;99.90;;;;;;5055023;28;20457;-93
2023/10/23 11:30:08;;;;;;;0.10;0.10;;;19.10;99.90;;;;;;5056176;28;20480;-93
2023/10/23 11:32:34;;;;;;;0.10;0.00;;;19.40;99.90;;;;;;5037444;28;20432;-94
2023/10/23 11:35:03;;;;;;;;;;;19.10;99.90;;;;;;5056471;28;20823;-92
2023/10/23 11:37:32;;;;;;;0.10;0.00;;;18.80;99.90;;;;;;5056237;28;21173;-93
2023/10/23 11:40:05;;;;;;;0.10;0.00;;;17.70;99.90;;;;;;5056942;28;20457;-93
2023/10/23 11:42:32;;;;;;;0.10;0.00;;;17.50;99.90;;;;;;5038898;28;20411;-92
2023/10/23 11:44:58;;;;;;;0.10;0.00;;;17.40;99.90;;;;;;5056552;28;20420;-93
2023/10/23 11:47:23;;;;;;;0.10;0.00;;;16.50;99.90;;;;;;5053769;28;20778;-92
2023/10/23 11:49:49;;;;;;;0.10;0.00;;;16.50;99.90;;;;;;5053830;28;20312;-93
2023/10/23 11:52:14;;;;;;;;;;;16.00;99.90;;;;;;5038504;28;20496;-91
2023/10/23 11:54:40;;;;;;;;;;;15.70;99.90;;;;;;5055297;28;20101;-92
2023/10/23 11:57:06;;;;;;;;;;;15.20;99.90;;;;;;5055648;28;19924;-93
2023/10/23 11:59:31;;;;;;;;;;;14.80;99.90;;;;;;5056162;28;19920;-93
2023/10/23 12:01:57;;;;;;;;;;;14.50;99.90;;;;;;5057742;28;20367;-95
2023/10/23 12:04:22;;;;;;;;;;;14.60;99.90;;;;;;5057387;28;19991;-91
2023/10/23 12:06:48;;;;;;;;;;;14.40;99.90;;;;;;5058530;28;19954;-93
2023/10/23 12:09:14;;;;;;;;;;;14.30;99.90;;;;;;5054095;28;20348;-93
2023/10/23 12:11:40;;;;;;;;;;;14.10;99.90;;;;;;5057869;28;19944;-94
2023/10/23 12:14:06;;;;;;;;;;;14.10;99.90;;;;;;5056928;28;19916;-93
2023/10/23 12:16:32;;;;;;;;;;;14.00;99.90;;;;;;5058160;28;19916;-92
2023/10/23 12:18:57;;;;;;;;;;;14.20;99.90;;;;;;5039365;28;19913;-94
2023/10/23 12:21:26;;;;;;;;;;;14.20;99.90;;;;;;5057902;28;20447;-95
2023/10/23 12:23:52;;;;;;;;;;;14.10;99.90;;;;;;5056438;28;19928;-93
2023/10/23 12:26:21;;;;;;;;;;;14.20;99.90;;;;;;5057178;28;19908;-93
2023/10/23 12:28:46;;;;;;;;;;;14.20;99.90;;;;;;5040829;28;19983;-92
2023/10/23 12:31:12;;;;;;;;;;;14.10;99.90;;;;;;5057699;28;19967;-91
2023/10/23 12:33:37;;;;;;;;;;;14.00;99.90;;;;;;5057841;28;19915;-94
2023/10/23 12:36:06;;;;;;;0.10;0.10;;;14.00;99.90;;;;;;5040495;28;19967;-90
2023/10/23 12:38:33;;;;;;;0.10;0.10;;;14.10;99.90;;;;;;5056209;28;20167;-95
2023/10/23 12:40:59;;;;;;;0.10;0.10;;;14.30;99.90;;;;;;5038961;28;20460;-94
2023/10/23 12:43:25;;;;;;;0.10;0.10;;;14.40;99.90;;;;;;5057418;28;20429;-95
2023/10/23 12:45:51;;;;;;;0.10;0.10;;;14.70;99.90;;;;;;5056348;28;20438;-93
2023/10/23 12:48:16;;;;;;;0.10;0.10;;;15.20;99.90;;;;;;5056076;28;20182;-93
2023/10/23 12:50:43;;;;;;;0.10;0.10;;;15.60;99.90;;;;;;5054982;28;20145;-96
2023/10/23 12:53:09;;;;;;;0.10;0.10;;;16.20;99.90;;;;;;5054575;28;20226;-92
2023/10/23 12:55:34;;;;;;;0.10;0.00;;;17.60;99.90;;;;;;5053247;28;20457;-94
2023/10/23 12:58:02;;;;;;;0.10;0.00;;;18.50;99.90;;;;;;5056073;28;20484;-96